Time;durP1;ratioP1;P1;durP2;ratioP2;P2;SDS_P1;SDS_P2;PMS_P1;PMS_P2;Temp;Humidity;BMP_temperature;BMP_pressure;BME280_temperature;BME280_humidity;BME280_pressure;Samples;Min_cycle;Max_cycle;Signal;HPM_P1;HPM_P2
2023/07/15 00:00:45;;;;;;;7.57;1.27;;;25.50;74.70;;;;;;4132655;28;20046;-52
2023/07/15 00:02:47;;;;;;;6.10;1.10;;;25.50;75.10;;;;;;4132364;28;20113;-53
2023/07/15 00:04:49;;;;;;;8.13;1.75;;;25.40;75.20;;;;;;4132112;28;20476;-51
2023/07/15 00:06:53;;;;;;;4.88;1.42;;;25.40;75.50;;;;;;4132825;28;20125;-53
2023/07/15 00:08:56;;;;;;;3.75;0.95;;;25.40;75.60;;;;;;4133426;28;20078;-52
2023/07/15 00:10:58;;;;;;;2.55;1.40;;;25.30;75.70;;;;;;4132442;28;20125;-52
2023/07/15 00:13:01;;;;;;;2.67;1.17;;;25.30;75.90;;;;;;4115267;28;20062;-52
2023/07/15 00:15:05;;;;;;;6.35;1.65;;;25.30;75.80;;;;;;4131816;28;20046;-51
2023/07/15 00:17:15;;;;;;;4.53;1.13;;;25.30;75.70;;;;;;4132459;28;20486;-52
2023/07/15 00:19:20;;;;;;;6.07;1.42;;;25.30;76.60;;;;;;4133096;28;20372;-52
2023/07/15 00:21:24;;;;;;;5.05;1.50;;;25.20;75.90;;;;;;4123166;28;20043;-55
2023/07/15 00:23:28;;;;;;;5.60;1.33;;;25.20;76.10;;;;;;4131731;28;20487;-52
2023/07/15 00:25:31;;;;;;;4.10;1.42;;;25.20;76.10;;;;;;4132084;28;20421;-52
2023/07/15 00:27:34;;;;;;;1.48;1.25;;;25.20;76.50;;;;;;4148242;28;20057;-52
2023/07/15 00:29:36;;;;;;;2.67;1.05;;;25.10;76.60;;;;;;4133241;28;20165;-53
2023/07/15 00:31:43;;;;;;;;;;;25.10;76.60;;;;;;4132722;28;20046;-52
2023/07/15 00:33:46;;;;;;;27.73;2.85;;;25.00;77.30;;;;;;4131496;28;20028;-52
2023/07/15 00:35:49;;;;;;;6.72;1.33;;;25.00;77.70;;;;;;4132449;28;20046;-52
2023/07/15 00:37:51;;;;;;;4.60;1.40;;;24.90;78.40;;;;;;4132039;28;20050;-52
2023/07/15 00:39:55;;;;;;;4.97;1.33;;;24.90;77.90;;;;;;4131625;28;20038;-53
2023/07/15 00:42:03;;;;;;;4.60;1.80;;;24.90;78.20;;;;;;4131976;28;20046;-52
2023/07/15 00:44:06;;;;;;;3.45;1.45;;;24.90;78.30;;;;;;4131143;28;20058;-52
2023/07/15 00:46:55;;;;;;;6.30;1.70;;;24.90;78.50;;;;;;4131889;28;20054;-52
2023/07/15 00:49:01;;;;;;;4.38;1.25;;;24.90;79.00;;;;;;4131934;28;20053;-51
2023/07/15 00:51:03;;;;;;;2.88;1.00;;;24.80;79.30;;;;;;4131812;28;20047;-51
2023/07/15 00:53:06;;;;;;;2.72;1.10;;;24.80;79.60;;;;;;4131710;28;20053;-52
2023/07/15 00:55:08;;;;;;;7.80;1.40;;;24.70;79.70;;;;;;4130366;28;20524;-53
2023/07/15 00:57:14;;;;;;;5.07;1.27;;;24.70;80.20;;;;;;4131564;28;20046;-52
2023/07/15 00:59:16;;;;;;;5.57;1.38;;;24.70;80.80;;;;;;4144782;28;20686;-51
2023/07/15 01:01:19;;;;;;;1.88;1.00;;;24.70;80.70;;;;;;4130596;28;20085;-52
2023/07/15 01:03:22;;;;;;;2.65;1.20;;;24.70;81.10;;;;;;4131625;28;20053;-51
2023/07/15 01:05:27;;;;;;;5.05;1.00;;;24.60;81.10;;;;;;4131487;28;20109;-57
2023/07/15 01:07:29;;;;;;;;;;;24.60;81.90;;;;;;4114814;28;20058;-56
2023/07/15 01:09:32;;;;;;;2.42;0.90;;;24.60;82.10;;;;;;4131208;28;20012;-51
2023/07/15 01:11:35;;;;;;;5.18;1.20;;;24.60;82.10;;;;;;4131416;28;20129;-52
2023/07/15 01:13:37;;;;;;;2.72;1.10;;;24.50;82.30;;;;;;4130431;28;20078;-52
2023/07/15 01:15:39;;;;;;;5.38;1.40;;;24.50;82.90;;;;;;4131098;28;20073;-54
2023/07/15 01:17:41;;;;;;;3.35;1.02;;;24.50;83.00;;;;;;4131775;28;20133;-52
2023/07/15 01:19:45;;;;;;;3.67;1.20;;;24.50;83.20;;;;;;4131463;28;20495;-52
2023/07/15 01:21:50;;;;;;;3.13;0.90;;;24.40;83.40;;;;;;4131168;28;20045;-52
2023/07/15 01:23:54;;;;;;;5.47;1.20;;;24.40;83.60;;;;;;4130013;28;20054;-51
2023/07/15 01:25:57;;;;;;;4.75;0.93;;;24.40;84.00;;;;;;4131537;28;20096;-51
2023/07/15 01:27:59;;;;;;;3.88;1.10;;;24.40;85.00;;;;;;4131166;28;20054;-51
2023/07/15 01:30:02;;;;;;;4.93;1.05;;;24.20;85.70;;;;;;4131300;28;20054;-51
2023/07/15 01:32:05;;;;;;;1.60;1.00;;;24.20;86.30;;;;;;4131189;28;20069;-51
2023/07/15 01:34:07;;;;;;;2.95;1.25;;;24.20;86.00;;;;;;4130593;28;20054;-55
2023/07/15 01:36:09;;;;;;;4.95;1.10;;;24.20;85.90;;;;;;4131422;28;20050;-51
2023/07/15 01:38:11;;;;;;;5.40;1.35;;;24.20;86.20;;;;;;4113488;28;20043;-51
2023/07/15 01:40:15;;;;;;;3.75;0.90;;;24.20;86.40;;;;;;4131187;28;20050;-51
2023/07/15 01:42:17;;;;;;;3.38;1.02;;;24.10;87.20;;;;;;4131120;28;20062;-52
2023/07/15 01:44:19;;;;;;;4.50;1.13;;;24.10;87.00;;;;;;4130237;28;20490;-53
2023/07/15 01:46:21;;;;;;;5.18;1.17;;;24.10;87.20;;;;;;4131293;28;20463;-52
2023/07/15 01:48:25;;;;;;;4.35;0.90;;;24.10;87.00;;;;;;4131063;28;20053;-50
2023/07/15 01:50:27;;;;;;;3.83;1.17;;;24.10;87.30;;;;;;4130986;28;20549;-51
2023/07/15 01:52:29;;;;;;;3.25;1.02;;;24.20;87.20;;;;;;4130457;28;20422;-51
2023/07/15 01:54:31;;;;;;;2.13;1.05;;;24.10;87.10;;;;;;4130058;28;20070;-51
2023/07/15 01:56:36;;;;;;;2.53;0.93;;;24.10;87.40;;;;;;4131032;28;20449;-50
2023/07/15 01:58:41;;;;;;;;;;;24.10;87.90;;;;;;4131340;28;20129;-52
2023/07/15 02:00:43;;;;;;;1.88;0.82;;;24.10;88.20;;;;;;4131010;28;19968;-52
2023/07/15 02:02:45;;;;;;;4.55;1.10;;;24.10;88.40;;;;;;4130986;28;20042;-52
2023/07/15 02:04:48;;;;;;;3.53;1.20;;;24.00;88.70;;;;;;4129856;28;20050;-52
2023/07/15 02:06:50;;;;;;;7.75;0.80;;;24.00;88.60;;;;;;4130580;28;20486;-52
2023/07/15 02:08:55;;;;;;;4.07;1.00;;;24.00;88.70;;;;;;4116673;28;20061;-60
2023/07/15 02:11:00;;;;;;;1.25;0.80;;;24.00;89.40;;;;;;4134183;28;20073;-52
2023/07/15 02:13:03;;;;;;;6.18;0.95;;;23.90;89.70;;;;;;4134127;28;20395;-59
2023/07/15 02:15:07;;;;;;;2.90;1.00;;;23.90;89.30;;;;;;4133101;28;20057;-56
2023/07/15 02:17:09;;;;;;;1.95;0.98;;;23.90;89.70;;;;;;4134159;28;20117;-53
2023/07/15 02:19:11;;;;;;;2.67;0.93;;;23.90;89.80;;;;;;4134052;28;20053;-55
2023/07/15 02:21:13;;;;;;;3.55;1.27;;;23.90;90.00;;;;;;4133491;28;20046;-52
2023/07/15 02:23:16;;;;;;;3.67;1.00;;;23.90;90.00;;;;;;4134145;28;20046;-52
2023/07/15 02:25:19;;;;;;;1.80;0.88;;;23.90;90.20;;;;;;4132826;28;20058;-52
2023/07/15 02:27:22;;;;;;;1.35;0.75;;;23.80;90.50;;;;;;4134182;28;20054;-52
2023/07/15 02:29:25;;;;;;;3.55;0.93;;;23.80;90.50;;;;;;4133887;28;20382;-52
2023/07/15 02:31:27;;;;;;;3.50;1.40;;;23.80;90.60;;;;;;4133768;28;20169;-52
2023/07/15 02:33:30;;;;;;;3.78;0.80;;;23.80;90.60;;;;;;4133514;28;20129;-52
2023/07/15 02:35:33;;;;;;;2.25;0.80;;;23.80;90.60;;;;;;4132785;28;20057;-52
2023/07/15 02:37:36;;;;;;;3.50;1.00;;;23.80;90.90;;;;;;4133798;28;20050;-52
2023/07/15 02:39:38;;;;;;;2.17;0.95;;;23.80;91.00;;;;;;4133856;28;20405;-52
2023/07/15 02:41:40;;;;;;;1.67;0.88;;;23.80;91.10;;;;;;4132547;28;20073;-52
2023/07/15 02:43:42;;;;;;;3.28;0.80;;;23.70;91.10;;;;;;4131815;28;20046;-52
2023/07/15 02:45:49;;;;;;;1.55;0.80;;;23.80;91.10;;;;;;4133596;28;20125;-53
2023/07/15 02:47:51;;;;;;;3.47;1.00;;;23.70;91.20;;;;;;4133941;28;20053;-55
2023/07/15 02:49:54;;;;;;;1.30;0.88;;;23.70;91.50;;;;;;4133400;28;20066;-52
2023/07/15 02:51:56;;;;;;;4.32;0.93;;;23.70;91.50;;;;;;4133732;28;20054;-52
2023/07/15 02:54:00;;;;;;;4.15;1.00;;;23.70;91.50;;;;;;4147846;28;20509;-52
2023/07/15 02:56:03;;;;;;;2.60;1.17;;;23.70;91.70;;;;;;4133894;28;20047;-52
2023/07/15 02:58:05;;;;;;;1.80;0.80;;;23.70;91.70;;;;;;4137188;28;20061;-51
2023/07/15 03:00:12;;;;;;;2.75;1.10;;;23.60;91.80;;;;;;4149956;28;20048;-52
2023/07/15 03:02:16;;;;;;;1.58;0.80;;;23.60;91.70;;;;;;4143104;28;20074;-52
2023/07/15 03:04:18;;;;;;;4.13;0.90;;;23.70;91.70;;;;;;4131924;28;20058;-52
2023/07/15 03:06:20;;;;;;;3.47;1.10;;;23.70;91.60;;;;;;4132372;28;20053;-54
2023/07/15 03:08:22;;;;;;;3.15;0.98;;;23.70;91.60;;;;;;4133578;28;20059;-56
2023/07/15 03:10:25;;;;;;;1.98;0.95;;;23.70;91.80;;;;;;4133493;28;20051;-51
2023/07/15 03:12:28;;;;;;;2.63;0.93;;;23.70;91.70;;;;;;4133417;28;20082;-51
2023/07/15 03:14:30;;;;;;;2.10;0.95;;;23.70;91.70;;;;;;4115000;28;20130;-52
2023/07/15 03:16:32;;;;;;;2.10;0.90;;;23.70;91.70;;;;;;4133442;28;20076;-52
2023/07/15 03:18:36;;;;;;;11.48;1.25;;;23.60;92.10;;;;;;4132659;28;20116;-51
2023/07/15 03:20:39;;;;;;;6.47;1.00;;;23.60;92.40;;;;;;4134549;28;20084;-56
2023/07/15 03:22:41;;;;;;;2.45;1.08;;;23.60;92.10;;;;;;4149220;28;20216;-51
2023/07/15 03:24:43;;;;;;;5.57;1.40;;;23.60;92.30;;;;;;4148507;28;20071;-51
2023/07/15 03:26:45;;;;;;;4.22;1.13;;;23.60;92.30;;;;;;4149219;28;20045;-52
2023/07/15 03:28:47;;;;;;;4.65;0.95;;;23.50;92.40;;;;;;4149296;28;20054;-51
2023/07/15 03:30:50;;;;;;;4.20;0.85;;;23.50;92.70;;;;;;4149140;28;20073;-51
2023/07/15 03:32:56;;;;;;;5.95;1.52;;;23.50;92.70;;;;;;4147627;28;20059;-51
2023/07/15 03:35:00;;;;;;;2.78;1.10;;;23.40;92.80;;;;;;4148498;28;20477;-52
2023/07/15 03:37:03;;;;;;;4.70;0.95;;;23.40;92.90;;;;;;4149082;28;20046;-51
2023/07/15 03:39:05;;;;;;;5.03;1.20;;;23.40;93.10;;;;;;4148884;28;20052;-52
2023/07/15 03:41:07;;;;;;;3.55;1.40;;;23.40;93.10;;;;;;4149177;28;20471;-52
2023/07/15 03:43:10;;;;;;;8.07;1.48;;;23.40;93.30;;;;;;4149022;28;20077;-51
2023/07/15 03:45:12;;;;;;;2.78;1.35;;;23.30;93.20;;;;;;4147953;28;20048;-51
2023/07/15 03:47:14;;;;;;;9.45;1.25;;;23.40;93.30;;;;;;4149477;28;20050;-51
2023/07/15 03:49:20;;;;;;;2.83;1.00;;;23.40;93.30;;;;;;4148963;28;20405;-51
2023/07/15 03:51:23;;;;;;;10.85;1.45;;;23.30;93.40;;;;;;4148865;28;20137;-51
2023/07/15 03:53:25;;;;;;;2.88;0.98;;;23.30;93.50;;;;;;4149033;28;20137;-51
2023/07/15 03:55:27;;;;;;;2.35;1.10;;;23.30;93.70;;;;;;4148083;28;20073;-51
2023/07/15 03:57:30;;;;;;;6.07;1.35;;;23.20;93.50;;;;;;4131494;28;20447;-51
2023/07/15 03:59:32;;;;;;;6.28;1.92;;;23.20;93.70;;;;;;4147934;28;20054;-52
2023/07/15 04:01:35;;;;;;;4.22;1.48;;;23.30;93.70;;;;;;4146989;28;20048;-63
2023/07/15 04:03:37;;;;;;;6.10;1.45;;;23.20;93.80;;;;;;4131455;28;20050;-51
2023/07/15 04:05:39;;;;;;;5.13;1.20;;;23.20;93.80;;;;;;4130821;28;20057;-53
2023/07/15 04:07:43;;;;;;;3.90;1.50;;;23.20;93.80;;;;;;4131824;28;20070;-51
2023/07/15 04:09:46;;;;;;;3.38;1.52;;;23.20;93.90;;;;;;4131702;28;20050;-51
2023/07/15 04:11:48;;;;;;;2.58;1.20;;;23.20;94.00;;;;;;4131682;28;20050;-52
2023/07/15 04:13:50;;;;;;;6.50;1.38;;;23.10;94.10;;;;;;4131373;28;20052;-53
2023/07/15 04:15:52;;;;;;;3.28;1.23;;;23.10;93.90;;;;;;4113545;28;20046;-51
2023/07/15 04:17:54;;;;;;;2.58;1.10;;;23.20;94.10;;;;;;4131209;28;20046;-51
2023/07/15 04:19:56;;;;;;;3.60;1.48;;;23.20;94.10;;;;;;4131450;28;20046;-58
2023/07/15 04:21:58;;;;;;;4.55;1.17;;;23.20;94.10;;;;;;4143800;28;20073;-51
2023/07/15 04:24:03;;;;;;;3.75;1.10;;;23.20;94.00;;;;;;4147119;28;20129;-51
2023/07/15 04:26:07;;;;;;;3.22;1.20;;;23.20;94.10;;;;;;4147428;28;20112;-51
2023/07/15 04:28:09;;;;;;;4.13;1.55;;;23.20;94.10;;;;;;4147601;28;20057;-51
2023/07/15 04:30:12;;;;;;;2.47;1.20;;;23.10;94.20;;;;;;4145538;28;20049;-51
2023/07/15 04:32:14;;;;;;;4.38;1.23;;;23.10;94.10;;;;;;4147096;28;20064;-51
2023/07/15 04:34:16;;;;;;;4.75;1.38;;;23.10;94.20;;;;;;4146838;28;20100;-51
2023/07/15 04:36:20;;;;;;;3.42;1.05;;;23.10;94.50;;;;;;4147491;28;20490;-50
2023/07/15 04:38:22;;;;;;;3.67;1.55;;;23.10;95.00;;;;;;4147345;28;20046;-49
2023/07/15 04:40:26;;;;;;;8.05;1.27;;;23.10;95.00;;;;;;4147525;28;20104;-51
2023/07/15 04:42:28;;;;;;;5.90;1.50;;;22.90;94.80;;;;;;4147292;28;20092;-52
2023/07/15 04:44:30;;;;;;;3.55;1.48;;;23.00;94.80;;;;;;4146553;28;20045;-51
2023/07/15 04:46:33;;;;;;;4.13;1.20;;;23.00;94.90;;;;;;4146990;28;20505;-51
2023/07/15 04:48:35;;;;;;;4.28;1.20;;;22.90;94.80;;;;;;4147507;28;20100;-51
2023/07/15 04:50:38;;;;;;;2.72;1.10;;;22.90;94.70;;;;;;4147697;28;20129;-54
2023/07/15 04:52:40;;;;;;;4.03;1.00;;;22.90;94.60;;;;;;4147362;28;20491;-52
2023/07/15 04:54:42;;;;;;;6.25;1.40;;;22.90;94.80;;;;;;4146255;28;20564;-51
2023/07/15 04:56:46;;;;;;;4.78;1.40;;;22.90;94.70;;;;;;4147119;28;20046;-51
2023/07/15 04:58:48;;;;;;;4.38;1.35;;;22.90;94.70;;;;;;4147395;28;20390;-52
2023/07/15 05:00:52;;;;;;;3.78;1.40;;;23.00;94.80;;;;;;4130169;28;20057;-51
2023/07/15 05:02:54;;;;;;;7.00;1.40;;;22.90;94.80;;;;;;4136055;28;20042;-51
2023/07/15 05:04:57;;;;;;;3.40;1.38;;;22.90;94.90;;;;;;4130562;28;20121;-53
2023/07/15 05:06:59;;;;;;;5.68;1.33;;;22.80;95.20;;;;;;4131761;28;20453;-52
2023/07/15 05:09:04;;;;;;;3.55;1.27;;;22.90;95.20;;;;;;4131750;28;20050;-56
2023/07/15 05:11:06;;;;;;;;;;;22.80;95.00;;;;;;4132125;28;20046;-52
2023/07/15 05:13:10;;;;;;;3.35;1.33;;;22.80;95.10;;;;;;4131417;28;20008;-52
2023/07/15 05:15:12;;;;;;;3.47;1.45;;;22.80;95.20;;;;;;4130351;28;20049;-52
2023/07/15 05:17:14;;;;;;;3.90;1.13;;;22.80;95.20;;;;;;4131461;28;20050;-52
2023/07/15 05:19:16;;;;;;;4.72;1.52;;;22.80;95.00;;;;;;4131339;28;20046;-52
2023/07/15 05:21:18;;;;;;;6.60;1.48;;;22.90;94.90;;;;;;4138053;28;20050;-53
2023/07/15 05:23:21;;;;;;;6.43;1.75;;;22.90;94.70;;;;;;4147685;28;20049;-50
2023/07/15 05:25:24;;;;;;;3.95;1.35;;;22.90;94.60;;;;;;4146531;28;20056;-52
2023/07/15 05:27:26;;;;;;;3.88;1.35;;;23.00;94.70;;;;;;4147442;28;20080;-52
2023/07/15 05:29:30;;;;;;;2.72;1.40;;;22.90;94.70;;;;;;4146069;28;20492;-51
2023/07/15 05:31:32;;;;;;;6.00;1.83;;;22.90;94.80;;;;;;4147434;28;20054;-52
2023/07/15 05:33:38;;;;;;;4.38;1.52;;;22.90;94.70;;;;;;4147340;28;20508;-51
2023/07/15 05:35:40;;;;;;;4.18;1.55;;;22.90;94.80;;;;;;4146533;28;20056;-52
2023/07/15 05:37:42;;;;;;;4.88;1.60;;;22.90;94.60;;;;;;4147423;28;20049;-51
2023/07/15 05:39:45;;;;;;;4.70;1.42;;;22.90;94.60;;;;;;4147409;28;20120;-52
2023/07/15 05:41:47;;;;;;;3.88;1.30;;;22.90;94.30;;;;;;4147384;28;20046;-51
2023/07/15 05:43:49;;;;;;;4.05;1.30;;;22.90;94.10;;;;;;4129248;28;20050;-52
2023/07/15 05:45:53;;;;;;;6.63;1.80;;;22.90;94.20;;;;;;4146533;28;20046;-57
2023/07/15 05:47:55;;;;;;;6.65;1.75;;;22.90;94.00;;;;;;4147813;28;20073;-51
2023/07/15 05:49:57;;;;;;;4.10;1.90;;;22.90;93.80;;;;;;4147646;28;20050;-52
2023/07/15 05:51:59;;;;;;;9.88;2.08;;;22.90;93.80;;;;;;4147096;28;20072;-51
2023/07/15 05:54:01;;;;;;;3.67;1.23;;;22.90;93.90;;;;;;4147200;28;20486;-52
2023/07/15 05:56:04;;;;;;;3.08;1.35;;;23.00;93.90;;;;;;4146253;28;20100;-52
2023/07/15 05:58:09;;;;;;;5.55;1.50;;;22.90;93.90;;;;;;4146856;28;20053;-52
2023/07/15 06:00:15;;;;;;;6.18;1.55;;;22.80;94.10;;;;;;4147426;28;20052;-51
2023/07/15 06:02:19;;;;;;;5.85;1.88;;;22.80;94.00;;;;;;4140260;28;20050;-51
2023/07/15 06:04:21;;;;;;;5.53;1.65;;;22.80;94.00;;;;;;4130117;28;20046;-52
2023/07/15 06:06:23;;;;;;;4.45;1.75;;;22.80;94.10;;;;;;4130685;28;20124;-51
2023/07/15 06:08:25;;;;;;;4.65;1.58;;;22.90;94.10;;;;;;4130950;28;20134;-51
2023/07/15 06:10:27;;;;;;;4.15;1.38;;;22.80;94.00;;;;;;4097838;28;20051;-51
2023/07/15 06:12:30;;;;;;;4.97;1.92;;;22.80;93.90;;;;;;4130619;28;20078;-52
2023/07/15 06:14:32;;;;;;;8.35;1.55;;;22.90;94.00;;;;;;4130077;28;20050;-51
2023/07/15 06:16:34;;;;;;;3.42;1.58;;;22.90;94.00;;;;;;4130650;28;20413;-51
2023/07/15 06:18:37;;;;;;;5.60;1.58;;;22.90;93.90;;;;;;4130884;28;20473;-51
2023/07/15 06:20:40;;;;;;;6.30;2.08;;;22.90;93.40;;;;;;4114774;28;20051;-51
2023/07/15 06:22:42;;;;;;;4.80;1.90;;;22.90;93.40;;;;;;4147142;28;20049;-51
2023/07/15 06:24:46;;;;;;;4.50;1.58;;;22.90;93.30;;;;;;4146295;28;20046;-52
2023/07/15 06:26:48;;;;;;;7.70;1.87;;;22.80;92.80;;;;;;4129126;28;20046;-51
2023/07/15 06:28:50;;;;;;;5.70;1.95;;;22.60;92.60;;;;;;4146978;28;20057;-50
2023/07/15 06:31:00;;;;;;;18.67;2.95;;;22.60;92.70;;;;;;4147156;28;20045;-51
2023/07/15 06:33:02;;;;;;;8.07;2.30;;;22.50;93.60;;;;;;4147037;28;20046;-51
2023/07/15 06:35:06;;;;;;;8.23;2.67;;;22.40;94.90;;;;;;4146039;28;20052;-52
2023/07/15 06:37:08;;;;;;;6.27;2.27;;;22.30;95.30;;;;;;4147156;28;20049;-51
2023/07/15 06:39:10;;;;;;;7.45;2.33;;;22.20;95.00;;;;;;4147047;28;20850;-51
2023/07/15 06:41:13;;;;;;;8.48;2.33;;;22.20;95.20;;;;;;4146939;28;20084;-52
2023/07/15 06:43:15;;;;;;;8.98;2.50;;;22.30;95.50;;;;;;4146621;28;20052;-51
2023/07/15 06:45:22;;;;;;;7.93;2.20;;;22.30;95.10;;;;;;4145925;28;20053;-51
2023/07/15 06:47:25;;;;;;;7.85;2.50;;;22.30;95.60;;;;;;4146948;28;20081;-51
2023/07/15 06:49:27;;;;;;;4.18;2.20;;;22.30;95.30;;;;;;4129425;28;20047;-51
2023/07/15 06:51:31;;;;;;;5.10;1.83;;;22.30;95.00;;;;;;4146861;28;20127;-51
2023/07/15 06:53:33;;;;;;;11.13;2.80;;;22.20;95.10;;;;;;4147326;28;20080;-51
2023/07/15 06:55:35;;;;;;;6.70;2.35;;;22.20;94.80;;;;;;4149069;28;20079;-52
2023/07/15 06:57:38;;;;;;;4.57;1.95;;;22.20;94.90;;;;;;4149564;28;20429;-52
2023/07/15 06:59:41;;;;;;;5.72;2.10;;;22.20;95.10;;;;;;4149523;28;20054;-51
2023/07/15 07:01:43;;;;;;;6.40;2.58;;;22.10;95.20;;;;;;4147561;28;20042;-51
2023/07/15 07:03:45;;;;;;;6.30;2.05;;;22.00;94.70;;;;;;4133643;28;20046;-51
2023/07/15 07:05:47;;;;;;;6.78;2.67;;;22.00;94.70;;;;;;4132479;28;20046;-51
2023/07/15 07:07:51;;;;;;;5.22;2.53;;;22.00;94.50;;;;;;4133251;28;20054;-51
2023/07/15 07:09:53;;;;;;;6.22;1.90;;;22.00;94.70;;;;;;4133478;28;20053;-48
2023/07/15 07:11:55;;;;;;;5.10;2.20;;;22.00;94.50;;;;;;4133101;28;20046;-49
2023/07/15 07:13:57;;;;;;;4.95;1.90;;;22.00;94.40;;;;;;4115886;28;20594;-51
2023/07/15 07:15:59;;;;;;;14.95;2.92;;;22.00;94.20;;;;;;4132510;28;20042;-50
2023/07/15 07:18:01;;;;;;;17.15;2.90;;;22.00;94.40;;;;;;4133307;28;20490;-56
2023/07/15 07:20:05;;;;;;;5.45;2.50;;;21.70;96.50;;;;;;4133381;28;20077;-50
2023/07/15 07:22:07;;;;;;;7.32;2.53;;;21.60;97.10;;;;;;4146351;28;20049;-52
2023/07/15 07:24:11;;;;;;;7.45;2.70;;;21.50;97.80;;;;;;4149458;28;20048;-51
2023/07/15 07:26:14;;;;;;;6.63;2.38;;;21.50;97.90;;;;;;4146835;28;20488;-50
2023/07/15 07:28:16;;;;;;;6.85;2.30;;;21.30;97.60;;;;;;4149309;28;20077;-55
2023/07/15 07:30:18;;;;;;;5.63;1.92;;;21.30;98.30;;;;;;4149248;28;20046;-51
2023/07/15 07:32:20;;;;;;;5.10;2.00;;;21.30;98.30;;;;;;4149543;28;20456;-51
2023/07/15 07:34:26;;;;;;;6.80;2.17;;;21.20;98.30;;;;;;4149658;28;20077;-52
2023/07/15 07:36:28;;;;;;;6.15;2.42;;;21.30;98.60;;;;;;4148773;28;20045;-54
2023/07/15 07:38:31;;;;;;;8.05;2.45;;;21.30;98.40;;;;;;4149428;28;20125;-52
2023/07/15 07:40:34;;;;;;;6.32;3.10;;;21.30;97.70;;;;;;4148895;28;20406;-53
2023/07/15 07:42:36;;;;;;;6.15;2.33;;;21.30;98.00;;;;;;4149186;28;20050;-52
2023/07/15 07:44:39;;;;;;;5.95;2.38;;;21.20;98.00;;;;;;4148367;28;20409;-51
2023/07/15 07:46:41;;;;;;;8.45;2.38;;;21.10;98.10;;;;;;4148989;28;20421;-55
2023/07/15 07:48:43;;;;;;;5.47;2.15;;;21.20;98.20;;;;;;4149019;28;20046;-52
2023/07/15 07:50:45;;;;;;;5.60;2.28;;;21.20;98.00;;;;;;4147855;28;20488;-51
2023/07/15 07:52:47;;;;;;;7.15;2.17;;;21.20;98.40;;;;;;4148894;28;20042;-51
2023/07/15 07:54:49;;;;;;;5.38;2.38;;;21.20;98.20;;;;;;4130480;28;20061;-51
2023/07/15 07:56:53;;;;;;;4.57;1.80;;;21.30;98.10;;;;;;4148725;28;20077;-51
2023/07/15 07:58:57;;;;;;;9.25;2.42;;;21.40;97.40;;;;;;4148691;28;20551;-50
2023/07/15 08:00:59;;;;;;;7.88;2.20;;;21.50;97.70;;;;;;4149027;28;20049;-52
2023/07/15 08:03:02;;;;;;;4.55;1.90;;;21.50;97.10;;;;;;4135926;28;20058;-51
2023/07/15 08:05:05;;;;;;;3.92;1.80;;;21.60;96.10;;;;;;4130568;28;20093;-51
2023/07/15 08:07:07;;;;;;;4.93;1.90;;;21.60;96.60;;;;;;4132439;28;20046;-51
2023/07/15 08:09:10;;;;;;;7.25;1.88;;;21.60;96.20;;;;;;4132357;28;20382;-52
2023/07/15 08:11:12;;;;;;;7.43;1.98;;;21.60;96.20;;;;;;4132369;28;20220;-51
2023/07/15 08:13:16;;;;;;;4.53;1.77;;;21.70;95.50;;;;;;4132294;28;20050;-51
2023/07/15 08:15:18;;;;;;;5.50;1.92;;;21.80;95.40;;;;;;4131583;28;20042;-52
2023/07/15 08:17:20;;;;;;;6.90;2.17;;;22.00;95.60;;;;;;4132390;28;20042;-52
2023/07/15 08:19:24;;;;;;;3.67;1.55;;;22.00;94.80;;;;;;4131137;28;20050;-52
2023/07/15 08:21:28;;;;;;;5.53;2.03;;;22.00;94.40;;;;;;4140189;28;20413;-51
2023/07/15 08:23:30;;;;;;;7.18;2.05;;;21.90;94.30;;;;;;4148258;28;20041;-52
2023/07/15 08:25:33;;;;;;;3.25;1.50;;;22.00;94.30;;;;;;4147526;28;20057;-51
2023/07/15 08:27:35;;;;;;;5.57;1.70;;;22.00;94.30;;;;;;4148176;28;20037;-52
2023/07/15 08:29:38;;;;;;;3.55;1.70;;;22.00;94.10;;;;;;4148577;28;20426;-52
2023/07/15 08:31:40;;;;;;;3.85;1.65;;;22.00;94.10;;;;;;4148073;28;20100;-51
2023/07/15 08:33:43;;;;;;;4.78;1.48;;;22.10;94.20;;;;;;4148241;28;20088;-51
2023/07/15 08:35:45;;;;;;;6.10;1.67;;;22.10;94.00;;;;;;4147288;28;20069;-50
2023/07/15 08:37:47;;;;;;;3.90;1.85;;;22.20;93.60;;;;;;4148189;28;20050;-52
2023/07/15 08:39:53;;;;;;;5.55;1.88;;;22.20;93.60;;;;;;4148168;28;20054;-52
2023/07/15 08:41:57;;;;;;;4.20;1.58;;;22.40;93.60;;;;;;4148192;28;20061;-51
2023/07/15 08:43:59;;;;;;;8.13;1.90;;;22.50;93.50;;;;;;4148141;28;20188;-52
2023/07/15 08:46:13;;;;;;;8.88;3.25;;;22.50;93.40;;;;;;4146999;28;20042;-55
2023/07/15 08:48:16;;;;;;;4.73;1.87;;;22.70;93.50;;;;;;4148458;28;20080;-51
2023/07/15 08:50:18;;;;;;;6.82;1.73;;;22.70;93.10;;;;;;4148436;28;20498;-52
2023/07/15 08:52:21;;;;;;;4.70;2.08;;;22.80;93.40;;;;;;4147740;28;20041;-51
2023/07/15 08:54:24;;;;;;;5.43;1.88;;;22.90;93.30;;;;;;4148197;28;20080;-61
2023/07/15 08:56:26;;;;;;;5.13;1.75;;;22.90;92.50;;;;;;4146887;28;20457;-51
2023/07/15 08:58:28;;;;;;;5.00;2.05;;;22.90;93.10;;;;;;4130663;28;20089;-52
2023/07/15 09:00:30;;;;;;;5.75;2.10;;;22.90;92.80;;;;;;4147955;28;20442;-51
2023/07/15 09:02:37;;;;;;;5.13;2.17;;;23.00;93.00;;;;;;4139357;28;20138;-52
2023/07/15 09:04:40;;;;;;;6.47;2.00;;;23.10;92.70;;;;;;4114590;28;20486;-51
2023/07/15 09:06:42;;;;;;;6.72;1.98;;;23.30;92.40;;;;;;4130280;28;20051;-52
2023/07/15 09:08:50;;;;;;;6.60;2.20;;;23.30;93.20;;;;;;4131587;28;20046;-50
2023/07/15 09:10:52;;;;;;;8.63;2.58;;;23.30;93.10;;;;;;4131484;28;20042;-51
2023/07/15 09:12:55;;;;;;;7.72;1.98;;;23.30;92.90;;;;;;4131805;28;20068;-52
2023/07/15 09:14:58;;;;;;;5.05;1.92;;;23.20;93.00;;;;;;4130722;28;20180;-52
2023/07/15 09:17:00;;;;;;;6.97;1.92;;;23.10;92.90;;;;;;4131285;28;20050;-52
2023/07/15 09:19:03;;;;;;;8.38;2.55;;;23.10;93.00;;;;;;4131390;28;20133;-51
2023/07/15 09:21:10;;;;;;;5.38;2.03;;;23.10;92.70;;;;;;4135955;28;20073;-51
2023/07/15 09:23:12;;;;;;;6.30;1.95;;;23.00;92.40;;;;;;4147798;28;20046;-51
2023/07/15 09:25:15;;;;;;;7.68;1.73;;;22.90;92.30;;;;;;4147034;28;20045;-51
2023/07/15 09:27:17;;;;;;;5.97;1.92;;;22.80;92.60;;;;;;4147647;28;20077;-54
2023/07/15 09:29:20;;;;;;;6.05;1.98;;;22.90;91.90;;;;;;4147652;28;20049;-52
2023/07/15 09:31:23;;;;;;;7.78;2.13;;;22.90;91.70;;;;;;4147795;28;20125;-52
2023/07/15 09:33:28;;;;;;;5.65;2.03;;;22.90;91.50;;;;;;4146129;28;20049;-51
2023/07/15 09:35:36;;;;;;;5.88;2.10;;;22.80;91.20;;;;;;4146262;28;20054;-51
2023/07/15 09:37:38;;;;;;;7.82;2.17;;;22.90;91.30;;;;;;4147367;28;20050;-50
2023/07/15 09:39:41;;;;;;;5.03;2.08;;;22.90;91.40;;;;;;4130173;28;20046;-50
2023/07/15 09:41:43;;;;;;;4.70;1.92;;;23.00;91.40;;;;;;4147572;28;20045;-51
2023/07/15 09:43:46;;;;;;;7.85;2.47;;;23.10;91.30;;;;;;4147375;28;20563;-51
2023/07/15 09:45:50;;;;;;;8.95;2.35;;;23.20;91.30;;;;;;4146701;28;20053;-51
2023/07/15 09:47:52;;;;;;;7.88;2.10;;;23.30;91.60;;;;;;4147321;28;20100;-52
2023/07/15 09:49:54;;;;;;;8.60;2.45;;;23.40;91.00;;;;;;4146121;28;20596;-53
2023/07/15 09:51:59;;;;;;;8.35;2.40;;;23.40;91.20;;;;;;4147344;28;20069;-51
2023/07/15 09:54:03;;;;;;;15.65;2.00;;;23.60;91.20;;;;;;4147314;28;20048;-51
2023/07/15 09:56:06;;;;;;;11.05;3.00;;;23.90;90.70;;;;;;4146403;28;20129;-51
2023/07/15 09:58:13;;;;;;;9.73;2.55;;;24.10;91.00;;;;;;4147404;28;20091;-51
2023/07/15 10:00:17;;;;;;;6.43;1.73;;;24.30;90.90;;;;;;4147705;28;20481;-52
2023/07/15 10:02:35;;;;;;;8.43;2.40;;;24.50;90.20;;;;;;4140698;28;20114;-57
2023/07/15 10:04:44;;;;;;;7.93;2.30;;;24.70;90.00;;;;;;4131631;28;20054;-51
2023/07/15 10:06:46;;;;;;;7.40;2.40;;;24.60;89.00;;;;;;4130652;28;20049;-51
2023/07/15 10:08:51;;;;;;;10.90;3.42;;;24.60;90.20;;;;;;4131253;28;20383;-52
2023/07/15 10:10:53;;;;;;;6.82;2.30;;;24.50;89.60;;;;;;4131042;28;20129;-52
2023/07/15 10:12:55;;;;;;;11.27;3.00;;;24.60;90.20;;;;;;4131388;28;20042;-51
2023/07/15 10:14:58;;;;;;;9.32;2.72;;;24.70;89.80;;;;;;4131196;28;20382;-52
2023/07/15 10:17:08;;;;;;;5.35;2.05;;;24.80;88.90;;;;;;4130347;28;20138;-52
2023/07/15 10:19:38;;;;;;;5.80;1.92;;;24.80;88.80;;;;;;4130670;28;20050;-52
2023/07/15 10:21:47;;;;;;;7.07;2.40;;;24.90;88.50;;;;;;4140855;28;20049;-51
2023/07/15 10:24:08;;;;;;;6.07;2.55;;;25.00;88.10;;;;;;4148009;28;20124;-60
2023/07/15 10:26:11;;;;;;;10.98;2.67;;;25.20;87.40;;;;;;4146791;28;20050;-51
2023/07/15 10:28:14;;;;;;;5.13;2.17;;;25.30;87.10;;;;;;4147144;28;20042;-50
2023/07/15 10:30:25;;;;;;;8.13;2.38;;;25.40;87.50;;;;;;4150164;28;20049;-51
2023/07/15 10:32:27;;;;;;;5.78;1.95;;;25.50;87.40;;;;;;4150766;28;20080;-51
2023/07/15 10:34:35;;;;;;;5.75;2.20;;;25.40;86.70;;;;;;4148940;28;20050;-52
2023/07/15 10:36:40;;;;;;;6.15;2.40;;;25.60;86.60;;;;;;4132156;28;20058;-50
2023/07/15 10:38:43;;;;;;;6.57;2.42;;;25.60;86.80;;;;;;4132710;28;20047;-51
2023/07/15 10:40:52;;;;;;;6.85;2.08;;;25.70;85.20;;;;;;4133784;28;20050;-52
2023/07/15 10:43:06;;;;;;;7.88;2.60;;;25.80;83.50;;;;;;4132601;28;20061;-50